sensor_id;sensor_type;location;lat;lon;timestamp;pressure;altitude;pressure_sealevel;temperature;humidity
74329;BME280;62749;51.982;5.916;2022-10-16T00:00:38;100856.78;;;13.27;78.26
74329;BME280;62749;51.982;5.916;2022-10-16T00:03:10;100859.03;;;13.17;79.34
74329;BME280;62749;51.982;5.916;2022-10-16T00:05:42;100857.13;;;13.20;78.93
74329;BME280;62749;51.982;5.916;2022-10-16T00:08:14;100859.69;;;13.22;78.62
74329;BME280;62749;51.982;5.916;2022-10-16T00:10:44;100857.97;;;13.21;78.61
74329;BME280;62749;51.982;5.916;2022-10-16T00:13:13;100859.03;;;13.17;79.09
74329;BME280;62749;51.982;5.916;2022-10-16T00:15:43;100865.38;;;13.32;77.50
74329;BME280;62749;51.982;5.916;2022-10-16T00:18:14;100865.28;;;13.33;77.32
74329;BME280;62749;51.982;5.916;2022-10-16T00:20:43;100858.34;;;13.31;77.93
74329;BME280;62749;51.982;5.916;2022-10-16T00:23:15;100860.31;;;13.27;78.33
74329;BME280;62749;51.982;5.916;2022-10-16T00:25:45;100857.81;;;13.24;79.03
74329;BME280;62749;51.982;5.916;2022-10-16T00:28:14;100855.25;;;13.23;79.12
74329;BME280;62749;51.982;5.916;2022-10-16T00:30:43;100853.34;;;13.25;79.07
74329;BME280;62749;51.982;5.916;2022-10-16T00:33:13;100853.53;;;13.22;78.80
74329;BME280;62749;51.982;5.916;2022-10-16T00:35:42;100851.22;;;13.31;78.39
74329;BME280;62749;51.982;5.916;2022-10-16T00:38:11;100857.16;;;13.37;78.16
74329;BME280;62749;51.982;5.916;2022-10-16T00:40:43;100860.59;;;13.39;78.09
74329;BME280;62749;51.982;5.916;2022-10-16T00:43:33;100857.41;;;13.32;79.07
74329;BME280;62749;51.982;5.916;2022-10-16T00:46:10;100861.59;;;13.36;78.53
74329;BME280;62749;51.982;5.916;2022-10-16T00:48:47;100867.09;;;13.33;79.01
74329;BME280;62749;51.982;5.916;2022-10-16T00:51:20;100862.19;;;13.25;79.07
74329;BME280;62749;51.982;5.916;2022-10-16T00:53:51;100863.94;;;13.25;79.18
74329;BME280;62749;51.982;5.916;2022-10-16T00:56:24;100863.19;;;13.23;79.38
74329;BME280;62749;51.982;5.916;2022-10-16T00:58:53;100876.63;;;13.19;79.46
74329;BME280;62749;51.982;5.916;2022-10-16T01:01:23;100863.25;;;13.21;79.55
74329;BME280;62749;51.982;5.916;2022-10-16T01:03:52;100862.72;;;13.14;80.04
74329;BME280;62749;51.982;5.916;2022-10-16T01:06:25;100861.41;;;13.23;79.52
74329;BME280;62749;51.982;5.916;2022-10-16T01:09:13;100864.81;;;13.25;79.53
74329;BME280;62749;51.982;5.916;2022-10-16T01:11:57;100869.09;;;13.28;79.45
74329;BME280;62749;51.982;5.916;2022-10-16T01:14:40;100878.34;;;13.20;79.72
74329;BME280;62749;51.982;5.916;2022-10-16T01:17:18;100875.94;;;13.16;80.27
74329;BME280;62749;51.982;5.916;2022-10-16T01:20:04;100874.50;;;13.09;80.93
74329;BME280;62749;51.982;5.916;2022-10-16T01:22:44;100863.75;;;13.12;80.71
74329;BME280;62749;51.982;5.916;2022-10-16T01:25:25;100851.72;;;13.04;80.88
74329;BME280;62749;51.982;5.916;2022-10-16T01:28:06;100857.75;;;13.08;81.38
74329;BME280;62749;51.982;5.916;2022-10-16T01:30:46;100855.41;;;13.02;81.35
74329;BME280;62749;51.982;5.916;2022-10-16T01:33:20;100862.03;;;13.11;81.35
74329;BME280;62749;51.982;5.916;2022-10-16T01:35:54;100863.06;;;13.08;81.22
74329;BME280;62749;51.982;5.916;2022-10-16T01:38:31;100856.81;;;13.09;81.18
74329;BME280;62749;51.982;5.916;2022-10-16T01:41:07;100865.38;;;13.14;80.64
74329;BME280;62749;51.982;5.916;2022-10-16T01:43:45;100867.72;;;13.20;80.52
74329;BME280;62749;51.982;5.916;2022-10-16T01:46:18;100850.94;;;13.20;80.33
74329;BME280;62749;51.982;5.916;2022-10-16T01:48:51;100853.94;;;13.14;81.29
74329;BME280;62749;51.982;5.916;2022-10-16T01:51:23;100858.50;;;13.28;80.64
74329;BME280;62749;51.982;5.916;2022-10-16T01:53:57;100862.88;;;13.29;80.49
74329;BME280;62749;51.982;5.916;2022-10-16T01:56:29;100853.28;;;13.26;81.13
74329;BME280;62749;51.982;5.916;2022-10-16T01:59:06;100867.53;;;13.24;81.23
74329;BME280;62749;51.982;5.916;2022-10-16T02:01:42;100877.84;;;13.30;80.79
74329;BME280;62749;51.982;5.916;2022-10-16T02:04:19;100884.88;;;13.31;80.86
74329;BME280;62749;51.982;5.916;2022-10-16T02:06:50;100871.47;;;13.34;80.74
74329;BME280;62749;51.982;5.916;2022-10-16T02:09:19;100863.19;;;13.40;80.21
74329;BME280;62749;51.982;5.916;2022-10-16T02:11:53;100862.56;;;13.35;80.25
74329;BME280;62749;51.982;5.916;2022-10-16T02:14:26;100856.78;;;13.44;79.82
74329;BME280;62749;51.982;5.916;2022-10-16T02:16:56;100872.88;;;13.41;80.14
74329;BME280;62749;51.982;5.916;2022-10-16T02:19:25;100879.25;;;13.55;79.65
74329;BME280;62749;51.982;5.916;2022-10-16T02:21:57;100868.25;;;13.45;80.24
74329;BME280;62749;51.982;5.916;2022-10-16T02:24:34;100862.38;;;13.56;79.57
74329;BME280;62749;51.982;5.916;2022-10-16T02:27:11;100866.84;;;13.55;79.74
74329;BME280;62749;51.982;5.916;2022-10-16T02:29:51;100870.59;;;13.51;80.00
74329;BME280;62749;51.982;5.916;2022-10-16T02:32:30;100871.28;;;13.55;79.62
74329;BME280;62749;51.982;5.916;2022-10-16T02:35:02;100876.75;;;13.52;80.29
74329;BME280;62749;51.982;5.916;2022-10-16T02:37:32;100886.50;;;13.51;79.72
74329;BME280;62749;51.982;5.916;2022-10-16T02:40:04;100872.63;;;13.46;80.53
74329;BME280;62749;51.982;5.916;2022-10-16T02:42:35;100872.56;;;13.47;80.17
74329;BME280;62749;51.982;5.916;2022-10-16T02:45:10;100872.31;;;13.52;79.80
74329;BME280;62749;51.982;5.916;2022-10-16T02:47:40;100873.25;;;13.51;80.02
74329;BME280;62749;51.982;5.916;2022-10-16T02:50:09;100879.41;;;13.52;80.02
74329;BME280;62749;51.982;5.916;2022-10-16T02:52:39;100867.84;;;13.53;79.77
74329;BME280;62749;51.982;5.916;2022-10-16T02:55:08;100879.34;;;13.53;79.57
74329;BME280;62749;51.982;5.916;2022-10-16T02:57:38;100888.47;;;13.47;79.83
74329;BME280;62749;51.982;5.916;2022-10-16T03:00:14;100883.22;;;13.46;79.90
74329;BME280;62749;51.982;5.916;2022-10-16T03:02:44;100890.41;;;13.44;80.12
74329;BME280;62749;51.982;5.916;2022-10-16T03:05:13;100887.53;;;13.48;79.98
74329;BME280;62749;51.982;5.916;2022-10-16T03:07:42;100886.22;;;13.40;80.47
74329;BME280;62749;51.982;5.916;2022-10-16T03:10:12;100883.16;;;13.30;81.27
74329;BME280;62749;51.982;5.916;2022-10-16T03:12:41;100875.81;;;13.35;80.93
74329;BME280;62749;51.982;5.916;2022-10-16T03:15:13;100872.88;;;13.41;80.49
74329;BME280;62749;51.982;5.916;2022-10-16T03:17:42;100863.81;;;13.28;81.48
74329;BME280;62749;51.982;5.916;2022-10-16T03:20:12;100859.97;;;13.33;80.71
74329;BME280;62749;51.982;5.916;2022-10-16T03:22:41;100878.38;;;13.37;80.80
74329;BME280;62749;51.982;5.916;2022-10-16T03:25:10;100886.25;;;13.38;80.26
74329;BME280;62749;51.982;5.916;2022-10-16T03:27:40;100896.84;;;13.40;80.34
74329;BME280;62749;51.982;5.916;2022-10-16T03:30:12;100892.22;;;13.43;80.12
74329;BME280;62749;51.982;5.916;2022-10-16T03:32:43;100897.06;;;13.35;80.35
74329;BME280;62749;51.982;5.916;2022-10-16T03:35:13;100887.28;;;13.35;80.98
74329;BME280;62749;51.982;5.916;2022-10-16T03:37:42;100888.31;;;13.33;81.09
74329;BME280;62749;51.982;5.916;2022-10-16T03:40:13;100888.88;;;13.40;80.36
74329;BME280;62749;51.982;5.916;2022-10-16T03:42:43;100888.31;;;13.33;80.72
74329;BME280;62749;51.982;5.916;2022-10-16T03:45:15;100900.78;;;13.31;80.76
74329;BME280;62749;51.982;5.916;2022-10-16T03:47:45;100906.53;;;13.39;80.33
74329;BME280;62749;51.982;5.916;2022-10-16T03:50:15;100911.06;;;13.37;80.27
74329;BME280;62749;51.982;5.916;2022-10-16T03:52:44;100911.06;;;13.37;80.31
74329;BME280;62749;51.982;5.916;2022-10-16T03:55:13;100902.34;;;13.35;80.41
74329;BME280;62749;51.982;5.916;2022-10-16T03:57:43;100909.97;;;13.24;80.95
74329;BME280;62749;51.982;5.916;2022-10-16T04:00:15;100897.34;;;13.29;80.54
74329;BME280;62749;51.982;5.916;2022-10-16T04:02:44;100895.03;;;13.23;80.97
74329;BME280;62749;51.982;5.916;2022-10-16T04:05:14;100898.97;;;13.31;80.40
74329;BME280;62749;51.982;5.916;2022-10-16T04:07:43;100907.13;;;13.28;80.65
74329;BME280;62749;51.982;5.916;2022-10-16T04:10:12;100911.00;;;13.21;81.05
74329;BME280;62749;51.982;5.916;2022-10-16T04:12:42;100913.28;;;13.29;80.05
74329;BME280;62749;51.982;5.916;2022-10-16T04:15:11;100922.16;;;13.28;80.69
74329;BME280;62749;51.982;5.916;2022-10-16T04:17:43;100922.31;;;13.25;81.02
74329;BME280;62749;51.982;5.916;2022-10-16T04:20:13;100925.28;;;13.36;80.00
74329;BME280;62749;51.982;5.916;2022-10-16T04:22:42;100942.78;;;13.40;79.99
74329;BME280;62749;51.982;5.916;2022-10-16T04:25:12;100937.19;;;13.46;79.86
74329;BME280;62749;51.982;5.916;2022-10-16T04:27:41;100941.53;;;13.30;80.71
74329;BME280;62749;51.982;5.916;2022-10-16T04:30:11;100945.50;;;13.39;79.92
74329;BME280;62749;51.982;5.916;2022-10-16T04:32:43;100949.66;;;13.44;79.86
74329;BME280;62749;51.982;5.916;2022-10-16T04:35:12;100953.09;;;13.46;79.63
74329;BME280;62749;51.982;5.916;2022-10-16T04:37:41;100959.88;;;13.52;79.40
74329;BME280;62749;51.982;5.916;2022-10-16T04:40:11;100960.19;;;13.46;80.00
74329;BME280;62749;51.982;5.916;2022-10-16T04:42:41;100960.72;;;13.53;79.45
74329;BME280;62749;51.982;5.916;2022-10-16T04:45:10;100961.06;;;13.46;79.66
74329;BME280;62749;51.982;5.916;2022-10-16T04:47:40;100964.56;;;13.47;79.53
74329;BME280;62749;51.982;5.916;2022-10-16T04:50:11;100960.28;;;13.44;79.84
74329;BME280;62749;51.982;5.916;2022-10-16T04:52:41;100968.16;;;13.46;79.58
74329;BME280;62749;51.982;5.916;2022-10-16T04:55:10;100961.06;;;13.46;79.42
74329;BME280;62749;51.982;5.916;2022-10-16T04:57:40;100962.25;;;13.41;79.99
74329;BME280;62749;51.982;5.916;2022-10-16T05:00:10;100967.47;;;13.42;79.58
74329;BME280;62749;51.982;5.916;2022-10-16T05:02:40;100980.06;;;13.37;80.23
74329;BME280;62749;51.982;5.916;2022-10-16T05:05:12;100981.75;;;13.40;80.40
74329;BME280;62749;51.982;5.916;2022-10-16T05:07:41;100971.97;;;13.40;79.92
74329;BME280;62749;51.982;5.916;2022-10-16T05:10:11;100984.81;;;13.30;80.60
74329;BME280;62749;51.982;5.916;2022-10-16T05:12:40;100981.09;;;13.34;80.15
74329;BME280;62749;51.982;5.916;2022-10-16T05:15:10;100990.13;;;13.30;80.52
74329;BME280;62749;51.982;5.916;2022-10-16T05:17:39;100985.78;;;13.29;80.36
74329;BME280;62749;51.982;5.916;2022-10-16T05:20:09;100992.03;;;13.28;80.39
74329;BME280;62749;51.982;5.916;2022-10-16T05:22:41;100999.44;;;13.22;80.83
74329;BME280;62749;51.982;5.916;2022-10-16T05:25:11;101003.84;;;13.21;80.66
74329;BME280;62749;51.982;5.916;2022-10-16T05:27:40;101009.09;;;13.23;80.69
74329;BME280;62749;51.982;5.916;2022-10-16T05:30:10;101008.84;;;13.10;81.21
74329;BME280;62749;51.982;5.916;2022-10-16T05:32:39;101013.44;;;13.06;81.49
74329;BME280;62749;51.982;5.916;2022-10-16T05:35:08;101016.78;;;13.10;81.14
74329;BME280;62749;51.982;5.916;2022-10-16T05:37:40;101018.41;;;12.95;81.43
74329;BME280;62749;51.982;5.916;2022-10-16T05:40:11;101024.00;;;12.88;82.27
74329;BME280;62749;51.982;5.916;2022-10-16T05:42:41;101027.16;;;12.97;81.51
74329;BME280;62749;51.982;5.916;2022-10-16T05:45:11;101035.25;;;12.94;81.50
74329;BME280;62749;51.982;5.916;2022-10-16T05:47:40;101032.59;;;12.94;81.78
74329;BME280;62749;51.982;5.916;2022-10-16T05:50:10;101036.53;;;12.85;81.96
74329;BME280;62749;51.982;5.916;2022-10-16T05:52:42;101042.78;;;12.84;82.18
74329;BME280;62749;51.982;5.916;2022-10-16T05:55:11;101044.00;;;12.77;82.51
74329;BME280;62749;51.982;5.916;2022-10-16T05:57:40;101050.28;;;12.74;82.77
74329;BME280;62749;51.982;5.916;2022-10-16T06:00:10;101061.69;;;12.76;82.64
74329;BME280;62749;51.982;5.916;2022-10-16T06:02:40;101060.75;;;12.77;82.33
74329;BME280;62749;51.982;5.916;2022-10-16T06:05:09;101065.06;;;12.80;81.92
74329;BME280;62749;51.982;5.916;2022-10-16T06:07:38;101065.06;;;12.80;82.08
74329;BME280;62749;51.982;5.916;2022-10-16T06:10:11;101067.91;;;12.75;82.18
74329;BME280;62749;51.982;5.916;2022-10-16T06:12:40;101071.22;;;12.80;82.18
74329;BME280;62749;51.982;5.916;2022-10-16T06:15:09;101082.84;;;12.78;82.29
74329;BME280;62749;51.982;5.916;2022-10-16T06:17:39;101077.16;;;12.66;83.04
74329;BME280;62749;51.982;5.916;2022-10-16T06:20:09;101077.72;;;12.73;83.03
74329;BME280;62749;51.982;5.916;2022-10-16T06:22:38;101078.97;;;12.85;82.28
74329;BME280;62749;51.982;5.916;2022-10-16T06:25:10;101081.19;;;12.75;82.81
74329;BME280;62749;51.982;5.916;2022-10-16T06:27:40;101072.25;;;12.78;82.75
74329;BME280;62749;51.982;5.916;2022-10-16T06:30:10;101078.13;;;12.84;82.72
74329;BME280;62749;51.982;5.916;2022-10-16T06:32:39;101081.84;;;12.80;82.77
74329;BME280;62749;51.982;5.916;2022-10-16T06:35:08;101081.53;;;12.86;82.82
74329;BME280;62749;51.982;5.916;2022-10-16T06:37:38;101090.97;;;12.92;82.49
74329;BME280;62749;51.982;5.916;2022-10-16T06:40:10;101087.41;;;12.93;82.41
74329;BME280;62749;51.982;5.916;2022-10-16T06:42:41;101101.09;;;13.03;82.47
74329;BME280;62749;51.982;5.916;2022-10-16T06:45:11;101106.50;;;13.01;82.85
74329;BME280;62749;51.982;5.916;2022-10-16T06:47:40;101117.34;;;13.14;81.90
74329;BME280;62749;51.982;5.916;2022-10-16T06:50:09;101126.31;;;13.12;82.08
74329;BME280;62749;51.982;5.916;2022-10-16T06:52:39;101128.53;;;13.21;81.76
74329;BME280;62749;51.982;5.916;2022-10-16T06:55:11;101127.38;;;13.27;81.51
74329;BME280;62749;51.982;5.916;2022-10-16T06:57:41;101133.47;;;13.29;81.82
74329;BME280;62749;51.982;5.916;2022-10-16T07:00:11;101136.84;;;13.32;81.34
74329;BME280;62749;51.982;5.916;2022-10-16T07:02:40;101143.63;;;13.40;81.37
74329;BME280;62749;51.982;5.916;2022-10-16T07:05:09;101148.69;;;13.44;80.88
74329;BME280;62749;51.982;5.916;2022-10-16T07:07:39;101145.91;;;13.47;81.07
74329;BME280;62749;51.982;5.916;2022-10-16T07:10:11;101155.50;;;13.50;81.09
74329;BME280;62749;51.982;5.916;2022-10-16T07:12:40;101155.28;;;13.55;80.69
74329;BME280;62749;51.982;5.916;2022-10-16T07:15:11;101156.19;;;13.54;80.92
74329;BME280;62749;51.982;5.916;2022-10-16T07:17:40;101164.81;;;13.59;80.90
74329;BME280;62749;51.982;5.916;2022-10-16T07:20:10;101179.50;;;13.66;80.67
74329;BME280;62749;51.982;5.916;2022-10-16T07:22:39;101183.03;;;13.67;80.45
74329;BME280;62749;51.982;5.916;2022-10-16T07:25:11;101186.44;;;13.69;80.35
74329;BME280;62749;51.982;5.916;2022-10-16T07:27:41;101191.69;;;13.70;80.53
74329;BME280;62749;51.982;5.916;2022-10-16T07:30:10;101201.25;;;13.74;80.54
74329;BME280;62749;51.982;5.916;2022-10-16T07:32:40;101200.38;;;13.74;80.36
74329;BME280;62749;51.982;5.916;2022-10-16T07:35:09;101211.78;;;13.76;80.47
74329;BME280;62749;51.982;5.916;2022-10-16T07:37:39;101223.09;;;13.79;80.37
74329;BME280;62749;51.982;5.916;2022-10-16T07:40:11;101224.72;;;13.82;80.37
74329;BME280;62749;51.982;5.916;2022-10-16T07:42:40;101228.13;;;13.86;80.29
74329;BME280;62749;51.982;5.916;2022-10-16T07:45:10;101228.75;;;13.91;79.58
74329;BME280;62749;51.982;5.916;2022-10-16T07:47:39;101223.44;;;13.91;80.32
74329;BME280;62749;51.982;5.916;2022-10-16T07:50:08;101231.91;;;13.99;79.69
74329;BME280;62749;51.982;5.916;2022-10-16T07:52:38;101231.44;;;14.08;79.36
74329;BME280;62749;51.982;5.916;2022-10-16T07:55:10;101234.41;;;14.20;78.97
74329;BME280;62749;51.982;5.916;2022-10-16T07:57:40;101232.44;;;14.23;79.31
74329;BME280;62749;51.982;5.916;2022-10-16T08:00:10;101234.25;;;14.23;78.75
74329;BME280;62749;51.982;5.916;2022-10-16T08:02:40;101238.47;;;14.27;78.67
74329;BME280;62749;51.982;5.916;2022-10-16T08:05:09;101242.63;;;14.33;78.62
74329;BME280;62749;51.982;5.916;2022-10-16T08:07:39;101242.78;;;14.30;78.43
74329;BME280;62749;51.982;5.916;2022-10-16T08:10:16;101234.88;;;14.46;78.16
74329;BME280;62749;51.982;5.916;2022-10-16T08:12:46;101241.38;;;14.57;77.69
74329;BME280;62749;51.982;5.916;2022-10-16T08:15:16;101249.59;;;14.70;77.62
74329;BME280;62749;51.982;5.916;2022-10-16T08:17:54;101248.94;;;14.65;77.57
74329;BME280;62749;51.982;5.916;2022-10-16T08:20:24;101258.34;;;14.72;77.27
74329;BME280;62749;51.982;5.916;2022-10-16T08:22:53;101263.19;;;14.82;76.80
74329;BME280;62749;51.982;5.916;2022-10-16T08:25:26;101254.03;;;14.87;76.32
74329;BME280;62749;51.982;5.916;2022-10-16T08:27:56;101258.53;;;15.03;77.19
74329;BME280;62749;51.982;5.916;2022-10-16T08:30:25;101257.50;;;15.06;76.36
74329;BME280;62749;51.982;5.916;2022-10-16T08:32:54;101272.72;;;15.03;76.31
74329;BME280;62749;51.982;5.916;2022-10-16T08:35:24;101277.69;;;15.10;76.07
74329;BME280;62749;51.982;5.916;2022-10-16T08:37:53;101282.47;;;15.03;74.98
74329;BME280;62749;51.982;5.916;2022-10-16T08:40:28;101285.47;;;14.97;76.13
74329;BME280;62749;51.982;5.916;2022-10-16T08:43:26;101290.81;;;14.97;75.92
74329;BME280;62749;51.982;5.916;2022-10-16T08:46:16;101289.44;;;15.06;76.17
74329;BME280;62749;51.982;5.916;2022-10-16T08:48:51;101286.09;;;15.18;75.50
74329;BME280;62749;51.982;5.916;2022-10-16T08:51:24;101285.28;;;15.17;75.63
74329;BME280;62749;51.982;5.916;2022-10-16T08:53:57;101299.25;;;15.21;75.21
74329;BME280;62749;51.982;5.916;2022-10-16T08:56:30;101291.91;;;15.26;74.53
74329;BME280;62749;51.982;5.916;2022-10-16T08:59:00;101298.88;;;15.45;73.93
74329;BME280;62749;51.982;5.916;2022-10-16T09:01:38;101312.44;;;15.40;74.76
74329;BME280;62749;51.982;5.916;2022-10-16T09:04:32;101313.66;;;15.50;74.55
74329;BME280;62749;51.982;5.916;2022-10-16T09:07:17;101316.16;;;15.54;73.64
74329;BME280;62749;51.982;5.916;2022-10-16T09:10:09;101322.00;;;15.60;73.91
74329;BME280;62749;51.982;5.916;2022-10-16T09:12:52;101324.00;;;15.73;73.06
74329;BME280;62749;51.982;5.916;2022-10-16T09:15:32;101321.59;;;15.68;72.73
74329;BME280;62749;51.982;5.916;2022-10-16T09:18:12;101338.34;;;15.70;72.82
74329;BME280;62749;51.982;5.916;2022-10-16T09:20:49;101330.88;;;15.77;71.99
74329;BME280;62749;51.982;5.916;2022-10-16T09:23:26;101345.53;;;15.86;72.70
74329;BME280;62749;51.982;5.916;2022-10-16T09:25:58;101336.84;;;15.98;71.27
74329;BME280;62749;51.982;5.916;2022-10-16T09:28:30;101337.28;;;15.90;71.11
74329;BME280;62749;51.982;5.916;2022-10-16T09:31:00;101335.63;;;16.04;70.97
74329;BME280;62749;51.982;5.916;2022-10-16T09:33:34;101330.72;;;16.12;69.87
74329;BME280;62749;51.982;5.916;2022-10-16T09:36:05;101344.47;;;16.04;71.15
74329;BME280;62749;51.982;5.916;2022-10-16T09:38:36;101343.19;;;16.12;71.93
74329;BME280;62749;51.982;5.916;2022-10-16T09:41:15;101344.16;;;16.10;70.26
74329;BME280;62749;51.982;5.916;2022-10-16T09:43:53;101362.72;;;16.12;71.03
74329;BME280;62749;51.982;5.916;2022-10-16T09:46:27;101352.56;;;16.19;70.64
74329;BME280;62749;51.982;5.916;2022-10-16T09:48:59;101355.56;;;16.29;71.07
74329;BME280;62749;51.982;5.916;2022-10-16T09:51:30;101362.34;;;16.34;70.43
74329;BME280;62749;51.982;5.916;2022-10-16T09:54:01;101368.25;;;16.39;69.78
74329;BME280;62749;51.982;5.916;2022-10-16T09:56:32;101372.31;;;16.47;70.87
74329;BME280;62749;51.982;5.916;2022-10-16T09:59:11;101363.19;;;16.51;70.00
74329;BME280;62749;51.982;5.916;2022-10-16T10:01:45;101373.66;;;16.54;70.92
74329;BME280;62749;51.982;5.916;2022-10-16T10:04:16;101365.03;;;16.65;70.91
74329;BME280;62749;51.982;5.916;2022-10-16T10:06:48;101373.44;;;16.73;70.78
74329;BME280;62749;51.982;5.916;2022-10-16T10:09:22;101379.97;;;16.83;69.38
74329;BME280;62749;51.982;5.916;2022-10-16T10:11:55;101385.31;;;16.83;69.33
74329;BME280;62749;51.982;5.916;2022-10-16T10:14:31;101384.38;;;16.84;69.58
74329;BME280;62749;51.982;5.916;2022-10-16T10:17:15;101387.97;;;16.83;69.53
74329;BME280;62749;51.982;5.916;2022-10-16T10:19:53;101383.81;;;16.94;68.42
74329;BME280;62749;51.982;5.916;2022-10-16T10:22:27;101384.16;;;16.87;69.89
74329;BME280;62749;51.982;5.916;2022-10-16T10:28:07;101385.09;;;16.86;68.10
74329;BME280;62749;51.982;5.916;2022-10-16T10:30:53;101375.47;;;17.14;67.41
74329;BME280;62749;51.982;5.916;2022-10-16T10:33:33;101388.75;;;17.16;67.78
74329;BME280;62749;51.982;5.916;2022-10-16T10:36:20;101390.41;;;17.47;65.54
74329;BME280;62749;51.982;5.916;2022-10-16T10:38:57;101393.63;;;17.53;64.85
74329;BME280;62749;51.982;5.916;2022-10-16T10:42:00;101388.88;;;17.43;66.37
74329;BME280;62749;51.982;5.916;2022-10-16T10:45:00;101391.53;;;17.29;64.47
74329;BME280;62749;51.982;5.916;2022-10-16T10:47:42;101407.63;;;17.13;65.71
74329;BME280;62749;51.982;5.916;2022-10-16T10:50:23;101393.13;;;17.17;64.60
74329;BME280;62749;51.982;5.916;2022-10-16T10:53:04;101401.13;;;17.17;64.26
74329;BME280;62749;51.982;5.916;2022-10-16T10:55:43;101399.78;;;17.10;62.98
74329;BME280;62749;51.982;5.916;2022-10-16T11:01:39;101403.34;;;17.25;62.01
74329;BME280;62749;51.982;5.916;2022-10-16T11:04:41;101409.66;;;17.53;61.84
74329;BME280;62749;51.982;5.916;2022-10-16T11:07:20;101405.19;;;17.53;62.92
74329;BME280;62749;51.982;5.916;2022-10-16T11:09:55;101405.28;;;17.52;61.19
74329;BME280;62749;51.982;5.916;2022-10-16T11:12:29;101419.03;;;17.45;62.24
74329;BME280;62749;51.982;5.916;2022-10-16T11:15:04;101411.84;;;17.46;61.06
74329;BME280;62749;51.982;5.916;2022-10-16T11:17:41;101415.19;;;17.64;61.73
74329;BME280;62749;51.982;5.916;2022-10-16T11:20:19;101420.94;;;17.87;59.93
74329;BME280;62749;51.982;5.916;2022-10-16T11:22:54;101431.63;;;17.72;59.07
74329;BME280;62749;51.982;5.916;2022-10-16T11:25:28;101428.75;;;17.61;59.30
74329;BME280;62749;51.982;5.916;2022-10-16T11:28:03;101436.56;;;17.64;60.26
74329;BME280;62749;51.982;5.916;2022-10-16T11:30:43;101431.81;;;17.55;58.88
74329;BME280;62749;51.982;5.916;2022-10-16T11:33:29;101429.28;;;17.37;59.80
74329;BME280;62749;51.982;5.916;2022-10-16T11:36:09;101441.34;;;17.44;58.97
74329;BME280;62749;51.982;5.916;2022-10-16T11:38:47;101438.56;;;17.46;59.38
74329;BME280;62749;51.982;5.916;2022-10-16T11:41:27;101435.72;;;17.63;59.25
74329;BME280;62749;51.982;5.916;2022-10-16T11:44:10;101428.19;;;17.70;58.94
74329;BME280;62749;51.982;5.916;2022-10-16T11:46:50;101442.09;;;17.75;59.06
74329;BME280;62749;51.982;5.916;2022-10-16T11:49:26;101435.91;;;17.75;58.64
74329;BME280;62749;51.982;5.916;2022-10-16T11:52:07;101437.53;;;17.92;58.14
74329;BME280;62749;51.982;5.916;2022-10-16T11:54:47;101442.31;;;18.01;57.78
74329;BME280;62749;51.982;5.916;2022-10-16T11:57:24;101438.03;;;17.99;57.75
74329;BME280;62749;51.982;5.916;2022-10-16T12:00:00;101440.81;;;17.97;56.73
74329;BME280;62749;51.982;5.916;2022-10-16T12:02:40;101448.72;;;17.99;57.90
74329;BME280;62749;51.982;5.916;2022-10-16T12:05:22;101446.31;;;17.94;57.13
74329;BME280;62749;51.982;5.916;2022-10-16T12:08:07;101452.31;;;17.83;57.95
74329;BME280;62749;51.982;5.916;2022-10-16T12:10:39;101455.47;;;17.90;57.67
74329;BME280;62749;51.982;5.916;2022-10-16T12:13:28;101453.13;;;18.00;57.45
74329;BME280;62749;51.982;5.916;2022-10-16T12:16:06;101459.03;;;18.05;57.17
74329;BME280;62749;51.982;5.916;2022-10-16T12:18:35;101464.63;;;18.15;57.10
74329;BME280;62749;51.982;5.916;2022-10-16T12:21:05;101468.16;;;18.30;57.64
74329;BME280;62749;51.982;5.916;2022-10-16T12:23:48;101460.22;;;18.28;57.05
74329;BME280;62749;51.982;5.916;2022-10-16T12:26:26;101460.63;;;18.36;56.73
74329;BME280;62749;51.982;5.916;2022-10-16T12:29:14;101463.94;;;18.40;56.96
74329;BME280;62749;51.982;5.916;2022-10-16T12:31:50;101461.69;;;18.61;55.99
74329;BME280;62749;51.982;5.916;2022-10-16T12:34:23;101466.31;;;18.72;56.67
74329;BME280;62749;51.982;5.916;2022-10-16T12:37:08;101460.88;;;18.74;53.49
74329;BME280;62749;51.982;5.916;2022-10-16T12:39:41;101468.25;;;18.70;53.17
74329;BME280;62749;51.982;5.916;2022-10-16T12:42:23;101466.69;;;18.80;53.28
74329;BME280;62749;51.982;5.916;2022-10-16T12:45:00;101469.22;;;18.96;52.91
74329;BME280;62749;51.982;5.916;2022-10-16T12:47:46;101463.47;;;19.03;52.56
74329;BME280;62749;51.982;5.916;2022-10-16T12:50:28;101479.09;;;19.09;54.35
74329;BME280;62749;51.982;5.916;2022-10-16T12:53:01;101473.34;;;18.88;53.39
74329;BME280;62749;51.982;5.916;2022-10-16T12:55:47;101482.75;;;18.80;54.33
74329;BME280;62749;51.982;5.916;2022-10-16T12:58:47;101481.94;;;18.93;52.09
74329;BME280;62749;51.982;5.916;2022-10-16T13:01:34;101480.44;;;19.16;53.22
74329;BME280;62749;51.982;5.916;2022-10-16T13:04:40;101473.47;;;19.39;52.14
74329;BME280;62749;51.982;5.916;2022-10-16T13:07:39;101476.53;;;19.73;53.22
74329;BME280;62749;51.982;5.916;2022-10-16T13:10:22;101477.69;;;19.95;51.13
74329;BME280;62749;51.982;5.916;2022-10-16T13:13:14;101470.50;;;20.08;48.54
74329;BME280;62749;51.982;5.916;2022-10-16T13:16:12;101469.97;;;20.03;49.46
74329;BME280;62749;51.982;5.916;2022-10-16T13:18:55;101478.66;;;20.07;49.67
74329;BME280;62749;51.982;5.916;2022-10-16T13:21:37;101475.97;;;20.07;51.17
74329;BME280;62749;51.982;5.916;2022-10-16T13:24:19;101476.03;;;20.31;48.96
74329;BME280;62749;51.982;5.916;2022-10-16T13:26:59;101485.44;;;20.37;49.52
74329;BME280;62749;51.982;5.916;2022-10-16T13:29:34;101477.44;;;20.24;50.07
74329;BME280;62749;51.982;5.916;2022-10-16T13:32:09;101485.22;;;20.40;49.86